Barcarole — WDB9640 — position and weather

sailwx.info

Track history (hours):
 
Tides and Currents Weather Stations Pressure Air Temp Water Temp Dewpoint Dewpoint Depression Visibility Wind Speed Wind Dir Waves Ship Positions

Barcarole

Owner: Brown, Jeremy, Bellingham, WA. More information available from US FCC via Universal Licensing System and Coast Guard Vessel Documentation Center.

Last reported at 2018-Apr-18 22:53 UTC. Time now 2018-Apr-21 13:46 UTC.
Position N 48°24' W 124°41'.

Type: Fishing. MMSI: 366980030.

Date/timePositionNaut miles runAvg speedWind from/ knotsBaromVisibWave heightAir tempDewpointWater temp
2018-Apr-18 22:53N 48°24' W 124°41'2 5.2
2018-Apr-18 22:30N 48°24' W 124°38'3 5.1
2018-Apr-18 22:00N 48°23' W 124°34'4 6.4
2018-Apr-18 21:27N 48°23' W 124°29'54 7.6
2018-Apr-18 14:18N 48°24' W 123°07'2 6.6
2018-Apr-18 13:59N 48°25' W 123°04'3 6.6
2018-Apr-18 13:29N 48°26' W 122°60'2 4.8
2018-Apr-18 13:00N 48°28' W 122°58'1 1.2
2018-Apr-18 12:29N 48°28' W 122°59'0 0.0
2018-Apr-18 11:59N 48°28' W 122°59'0 0.0
2018-Apr-18 11:29N 48°28' W 122°59'0 0.0
2018-Apr-18 10:59N 48°28' W 122°59'0 0.0
2018-Apr-18 10:29N 48°28' W 122°59'0 0.1
2018-Apr-18 09:59N 48°28' W 122°59'0 0.0
2018-Apr-18 09:29N 48°28' W 122°59'0 0.1
2018-Apr-18 08:59N 48°28' W 122°59'0 0.0
2018-Apr-18 08:29N 48°28' W 122°59'0 0.0
2018-Apr-18 07:56N 48°28' W 122°59'0 0.0
2018-Apr-18 07:29N 48°28' W 122°59'0 0.0
2018-Apr-18 06:59N 48°28' W 122°59'0 0.0
2018-Apr-18 06:29N 48°28' W 122°59'0 0.0
2018-Apr-18 05:53N 48°28' W 122°59'0 0.0
2018-Apr-18 05:29N 48°28' W 122°59'0 0.0
2018-Apr-18 04:59N 48°28' W 122°59'0 0.0
2018-Apr-18 04:26N 48°28' W 122°59'0 0.0
2018-Apr-18 03:56N 48°28' W 122°59'1 1.9
2018-Apr-18 03:30N 48°29' W 122°58'4 7.1
2018-Apr-18 03:00N 48°32' W 122°56'4 6.8
2018-Apr-18 02:29N 48°35' W 122°52'3 6.5
2018-Apr-18 01:58N 48°35' W 122°48'7 5.4
2018-Apr-18 00:39N 48°38' W 122°37'1 5.0
2018-Apr-18 00:30N 48°38' W 122°37'  
Track history (hours):
 
Tides and Currents Weather Stations Pressure Air Temp Water Temp Dewpoint Dewpoint Depression Visibility Wind Speed Wind Dir Waves Ship Positions

Barcarole

Owner: Brown, Jeremy, Bellingham, WA. More information available from US FCC via Universal Licensing System and Coast Guard Vessel Documentation Center.

Last reported at 2018-Apr-18 22:53 UTC. Time now 2018-Apr-21 13:46 UTC.
Position N 48°24' W 124°41'.

Type: Fishing. MMSI: 366980030.

Date/timePositionNaut miles runAvg speedWind from/ knotsBaromVisibWave heightAir tempDewpointWater temp
2018-Apr-18 22:53N 48°24' W 124°41'2 5.2
2018-Apr-18 22:30N 48°24' W 124°38'3 5.1
2018-Apr-18 22:00N 48°23' W 124°34'4 6.4
2018-Apr-18 21:27N 48°23' W 124°29'54 7.6
2018-Apr-18 14:18N 48°24' W 123°07'2 6.6
2018-Apr-18 13:59N 48°25' W 123°04'3 6.6
2018-Apr-18 13:29N 48°26' W 122°60'2 4.8
2018-Apr-18 13:00N 48°28' W 122°58'1 1.2
2018-Apr-18 12:29N 48°28' W 122°59'0 0.0
2018-Apr-18 11:59N 48°28' W 122°59'0 0.0
2018-Apr-18 11:29N 48°28' W 122°59'0 0.0
2018-Apr-18 10:59N 48°28' W 122°59'0 0.0
2018-Apr-18 10:29N 48°28' W 122°59'0 0.1
2018-Apr-18 09:59N 48°28' W 122°59'0 0.0
2018-Apr-18 09:29N 48°28' W 122°59'0 0.1
2018-Apr-18 08:59N 48°28' W 122°59'0 0.0
2018-Apr-18 08:29N 48°28' W 122°59'0 0.0
2018-Apr-18 07:56N 48°28' W 122°59'0 0.0
2018-Apr-18 07:29N 48°28' W 122°59'0 0.0
2018-Apr-18 06:59N 48°28' W 122°59'0 0.0
2018-Apr-18 06:29N 48°28' W 122°59'0 0.0
2018-Apr-18 05:53N 48°28' W 122°59'0 0.0
2018-Apr-18 05:29N 48°28' W 122°59'0 0.0
2018-Apr-18 04:59N 48°28' W 122°59'0 0.0
2018-Apr-18 04:26N 48°28' W 122°59'0 0.0
2018-Apr-18 03:56N 48°28' W 122°59'1 1.9
2018-Apr-18 03:30N 48°29' W 122°58'4 7.1
2018-Apr-18 03:00N 48°32' W 122°56'4 6.8
2018-Apr-18 02:29N 48°35' W 122°52'3 6.5
2018-Apr-18 01:58N 48°35' W 122°48'7 5.4
2018-Apr-18 00:39N 48°38' W 122°37'1 5.0
2018-Apr-18 00:30N 48°38' W 122°37'  

Dump ship's entire track history